createdAt,value
2019-06-20T00:02:13.506Z,58.30
2019-06-20T00:04:42.182Z,58.40
2019-06-20T00:07:11.103Z,58.70
2019-06-20T00:09:40.476Z,58.60
2019-06-20T00:12:09.206Z,61.40
2019-06-20T00:14:37.901Z,54.00
2019-06-20T00:17:06.823Z,56.60
2019-06-20T00:19:35.534Z,64.50
2019-06-20T00:22:04.234Z,67.80
2019-06-20T00:24:33.280Z,71.20
2019-06-20T00:27:02.014Z,72.00
2019-06-20T00:29:31.190Z,74.30
2019-06-20T00:31:59.997Z,74.90
2019-06-20T00:34:28.679Z,78.70
2019-06-20T00:36:57.383Z,80.60
2019-06-20T00:39:26.435Z,83.00
2019-06-20T00:41:55.129Z,83.10
2019-06-20T00:44:23.784Z,85.10
2019-06-20T00:46:52.552Z,90.30
2019-06-20T00:49:21.538Z,88.70
2019-06-20T00:51:50.279Z,89.30
2019-06-20T00:54:19.214Z,89.50
2019-06-20T00:56:47.867Z,88.70
2019-06-20T00:59:17.609Z,89.30
2019-06-20T01:01:46.850Z,90.60
2019-06-20T01:04:15.775Z,91.70
2019-06-20T01:06:44.466Z,92.20
2019-06-20T01:09:13.533Z,92.80
2019-06-20T01:11:42.500Z,91.00
2019-06-20T01:14:11.482Z,90.20
2019-06-20T01:16:40.248Z,85.80
2019-06-20T01:19:08.915Z,86.20
2019-06-20T01:21:37.588Z,84.40
2019-06-20T01:24:06.454Z,82.80
2019-06-20T01:26:35.218Z,81.60
2019-06-20T01:29:04.195Z,80.00
2019-06-20T01:31:33.056Z,80.40
2019-06-20T01:34:01.730Z,80.80
2019-06-20T01:36:30.394Z,80.70
2019-06-20T01:38:59.078Z,81.40
2019-06-20T01:41:27.779Z,82.40
2019-06-20T01:43:56.715Z,82.80
2019-06-20T01:46:25.534Z,84.10
2019-06-20T01:48:54.530Z,84.60
2019-06-20T01:51:23.408Z,86.10
2019-06-20T01:53:52.510Z,87.00
2019-06-20T01:56:21.904Z,86.10
2019-06-20T01:58:50.620Z,87.10
2019-06-20T02:01:19.885Z,87.90
2019-06-20T02:03:48.590Z,88.10
2019-06-20T02:06:17.430Z,88.50
2019-06-20T02:08:46.206Z,88.60
2019-06-20T02:11:14.953Z,88.70
2019-06-20T02:13:43.715Z,89.30
2019-06-20T02:16:12.414Z,89.40
2019-06-20T02:18:41.116Z,89.50
2019-06-20T02:21:09.955Z,89.60
2019-06-20T02:23:38.736Z,90.00
2019-06-20T02:26:07.510Z,90.00
2019-06-20T02:28:36.634Z,90.30
2019-06-20T02:31:05.512Z,90.40
2019-06-20T02:33:34.199Z,90.70
2019-06-20T02:36:03.083Z,90.90
2019-06-20T02:38:31.801Z,91.20
2019-06-20T02:41:00.448Z,91.40
2019-06-20T02:43:29.415Z,91.70
2019-06-20T02:45:58.172Z,91.70
2019-06-20T02:48:26.873Z,91.70
2019-06-20T02:50:55.686Z,91.70
2019-06-20T02:53:24.662Z,91.70
2019-06-20T02:55:53.989Z,91.90
2019-06-20T02:58:22.804Z,92.30
2019-06-20T03:00:57.619Z,92.40
2019-06-20T03:03:28.231Z,92.30
2019-06-20T03:05:57.626Z,92.60
2019-06-20T03:08:26.565Z,92.70
2019-06-20T03:10:55.278Z,92.70
2019-06-20T03:13:24.157Z,92.90
2019-06-20T03:15:53.146Z,93.00
2019-06-20T03:18:22.086Z,93.10
2019-06-20T03:20:51.433Z,93.10
2019-06-20T03:23:20.357Z,92.70
2019-06-20T03:25:49.062Z,92.30
2019-06-20T03:28:18.183Z,91.70
2019-06-20T03:30:47.730Z,91.00
2019-06-20T03:33:16.609Z,90.30
2019-06-20T03:35:45.697Z,90.30
2019-06-20T03:38:14.828Z,90.30
2019-06-20T03:40:43.740Z,90.80
2019-06-20T03:43:13.212Z,91.40
2019-06-20T03:45:42.014Z,91.90
2019-06-20T03:48:10.748Z,92.50
2019-06-20T03:50:39.489Z,92.80
2019-06-20T03:53:08.262Z,93.00
2019-06-20T03:55:37.233Z,92.50
2019-06-20T03:58:06.254Z,91.20
2019-06-20T04:00:35.914Z,88.70
2019-06-20T04:03:06.175Z,84.70
2019-06-20T04:05:35.964Z,82.80
2019-06-20T04:08:04.762Z,81.60
2019-06-20T04:11:01.703Z,80.10
2019-06-20T04:13:39.861Z,78.40
2019-06-20T04:16:08.968Z,76.20
2019-06-20T04:18:37.740Z,73.70
2019-06-20T04:21:06.518Z,71.70
2019-06-20T04:23:35.225Z,70.90
2019-06-20T04:26:04.373Z,69.90
2019-06-20T04:28:33.366Z,71.10
2019-06-20T04:31:02.363Z,71.30
2019-06-20T04:33:31.106Z,71.90
2019-06-20T04:35:59.830Z,71.80
2019-06-20T04:38:28.720Z,69.70
2019-06-20T04:40:57.426Z,68.70
2019-06-20T04:43:26.535Z,67.10
2019-06-20T04:46:13.147Z,66.80
2019-06-20T04:48:41.951Z,65.90
2019-06-20T04:51:10.705Z,66.20
2019-06-20T04:53:39.388Z,65.20
2019-06-20T04:56:08.167Z,62.60
2019-06-20T04:58:37.078Z,61.20
2019-06-20T05:01:05.982Z,65.40
2019-06-20T05:03:35.018Z,67.70
2019-06-20T05:06:03.939Z,71.20
2019-06-20T05:08:32.936Z,72.20
2019-06-20T05:11:01.738Z,70.50
2019-06-20T05:13:30.653Z,69.00
2019-06-20T05:15:59.344Z,66.50
2019-06-20T05:18:28.184Z,64.10
2019-06-20T05:20:56.905Z,63.50
2019-06-20T05:23:25.570Z,66.80
2019-06-20T05:25:54.667Z,69.80
2019-06-20T05:28:23.336Z,71.30
2019-06-20T05:30:52.204Z,69.70
2019-06-20T05:33:21.017Z,68.10
2019-06-20T05:35:49.905Z,68.40
2019-06-20T05:38:18.971Z,69.90
2019-06-20T05:40:47.857Z,72.00
2019-06-20T05:43:17.034Z,75.00
2019-06-20T05:45:48.654Z,78.40
2019-06-20T05:48:16.257Z,80.10
2019-06-20T05:50:45.003Z,81.60
2019-06-20T05:53:13.684Z,81.60
2019-06-20T05:55:42.643Z,83.50
2019-06-20T05:58:11.333Z,83.50
2019-06-20T06:00:40.255Z,82.80
2019-06-20T06:03:09.342Z,81.80
2019-06-20T06:05:38.082Z,81.00
2019-06-20T06:08:06.819Z,80.60
2019-06-20T06:10:36.646Z,80.60
2019-06-20T06:13:05.316Z,81.40
2019-06-20T06:15:33.987Z,81.20
2019-06-20T06:18:02.865Z,82.10
2019-06-20T06:20:31.532Z,84.80
2019-06-20T06:23:00.690Z,86.00
2019-06-20T06:25:29.780Z,86.80
2019-06-20T06:27:58.738Z,89.80
2019-06-20T06:30:27.638Z,90.30
2019-06-20T06:32:56.437Z,91.80
2019-06-20T06:35:25.275Z,93.50
2019-06-20T06:37:54.015Z,93.80
2019-06-20T06:40:23.447Z,94.30
2019-06-20T06:42:56.068Z,94.90
2019-06-20T06:45:25.894Z,94.70
2019-06-20T06:47:55.462Z,94.80
2019-06-20T06:50:24.568Z,95.30
2019-06-20T06:52:53.290Z,95.20
2019-06-20T06:55:22.059Z,95.50
2019-06-20T06:57:50.745Z,94.60
2019-06-20T07:00:19.839Z,95.20
2019-06-20T07:02:48.620Z,94.90
2019-06-20T07:05:18.061Z,94.80
2019-06-20T07:07:47.058Z,94.80
2019-06-20T07:10:18.206Z,94.40
2019-06-20T07:12:48.126Z,94.20
2019-06-20T07:15:17.196Z,93.60
2019-06-20T07:17:46.297Z,93.00
2019-06-20T07:20:15.468Z,93.40
2019-06-20T07:22:44.285Z,93.00
2019-06-20T07:25:13.500Z,92.20
2019-06-20T07:27:42.201Z,92.20
2019-06-20T07:30:13.319Z,91.80
2019-06-20T07:32:42.205Z,91.30
2019-06-20T07:35:11.596Z,90.50
2019-06-20T07:37:40.294Z,90.10
2019-06-20T07:40:10.696Z,90.50
2019-06-20T07:42:39.682Z,91.30
2019-06-20T07:45:09.170Z,91.60
2019-06-20T07:47:38.146Z,91.90
2019-06-20T07:50:08.951Z,92.10
2019-06-20T07:52:37.846Z,91.60
2019-06-20T07:55:07.039Z,91.70
2019-06-20T07:57:35.837Z,92.20
2019-06-20T08:00:06.091Z,92.10
2019-06-20T08:02:34.833Z,92.00
2019-06-20T08:05:04.035Z,92.00
2019-06-20T08:07:33.219Z,91.80
2019-06-20T08:10:02.649Z,91.60
2019-06-20T08:12:31.691Z,91.30
2019-06-20T08:15:13.984Z,91.50
2019-06-20T08:17:35.235Z,91.40
2019-06-20T08:20:01.638Z,91.00
2019-06-20T08:22:30.483Z,90.30
2019-06-20T08:25:00.958Z,90.00
2019-06-20T08:27:47.635Z,88.30
2019-06-20T08:30:16.537Z,87.80
2019-06-20T08:32:45.552Z,87.70
2019-06-20T08:35:14.647Z,87.10
2019-06-20T08:37:43.612Z,87.10
2019-06-20T08:40:12.647Z,82.90
2019-06-20T08:42:42.368Z,79.20
2019-06-20T08:45:11.466Z,76.60
2019-06-20T08:47:40.283Z,74.20
2019-06-20T08:50:10.152Z,67.40
2019-06-20T08:52:39.122Z,61.90
2019-06-20T08:55:08.431Z,58.50
2019-06-20T08:57:37.313Z,55.30
2019-06-20T09:00:08.205Z,53.70
2019-06-20T09:02:37.170Z,52.50
2019-06-20T09:05:06.440Z,52.30
2019-06-20T09:07:35.899Z,54.20
2019-06-20T09:10:05.938Z,56.90
2019-06-20T09:12:35.071Z,59.70
2019-06-20T09:15:04.236Z,62.50
2019-06-20T09:17:33.388Z,65.10
2019-06-20T09:20:02.930Z,66.70
2019-06-20T09:22:31.981Z,67.40
2019-06-20T09:25:00.975Z,69.50
2019-06-20T09:27:29.991Z,71.30
2019-06-20T09:29:58.797Z,72.00
2019-06-20T09:32:27.811Z,72.30
2019-06-20T09:34:56.631Z,72.00
2019-06-20T09:37:25.541Z,73.30
2019-06-20T09:39:54.790Z,71.80
2019-06-20T09:42:23.614Z,72.00
2019-06-20T09:44:54.075Z,70.30
2019-06-20T09:47:23.212Z,67.80
2019-06-20T09:49:55.217Z,66.50
2019-06-20T09:52:22.823Z,66.30
2019-06-20T09:54:51.746Z,65.40
2019-06-20T09:57:20.508Z,65.40
2019-06-20T10:00:03.276Z,65.90
2019-06-20T10:02:19.732Z,67.60
2019-06-20T10:04:49.503Z,67.00
2019-06-20T10:07:19.196Z,67.30
2019-06-20T10:09:48.225Z,66.20
2019-06-20T10:12:18.566Z,65.50
2019-06-20T10:14:48.007Z,64.50
2019-06-20T10:17:18.082Z,65.40
2019-06-20T10:19:48.303Z,64.20
2019-06-20T10:22:17.371Z,65.20
2019-06-20T10:24:47.377Z,64.80
2019-06-20T10:27:16.259Z,65.60
2019-06-20T10:29:47.180Z,66.50
2019-06-20T10:32:16.443Z,68.20
2019-06-20T10:34:46.664Z,68.30
2019-06-20T10:37:15.511Z,69.60
2019-06-20T10:39:45.040Z,68.70
2019-06-20T10:42:14.711Z,68.90
2019-06-20T10:44:44.256Z,70.10
2019-06-20T10:47:13.728Z,69.20
2019-06-20T10:49:43.560Z,67.70
2019-06-20T10:52:13.423Z,67.40
2019-06-20T10:54:43.313Z,67.50
2019-06-20T10:57:15.129Z,66.50
2019-06-20T10:59:44.251Z,64.90
2019-06-20T11:02:13.241Z,64.20
2019-06-20T11:04:42.422Z,63.80
2019-06-20T11:07:12.584Z,63.90
2019-06-20T11:09:41.303Z,62.60
2019-06-20T11:12:10.116Z,64.30
2019-06-20T11:14:40.298Z,65.50
2019-06-20T11:17:09.870Z,66.50
2019-06-20T11:19:39.749Z,68.00
2019-06-20T11:22:09.626Z,66.70
2019-06-20T11:24:39.202Z,66.90
2019-06-20T11:27:07.935Z,66.60
2019-06-20T11:29:39.744Z,65.80
2019-06-20T11:32:08.754Z,65.60
2019-06-20T11:34:38.282Z,66.60
2019-06-20T11:37:08.082Z,66.20
2019-06-20T11:39:37.452Z,66.00
2019-06-20T11:42:06.623Z,64.50
2019-06-20T11:44:36.984Z,64.60
2019-06-20T11:47:05.842Z,64.70
2019-06-20T11:49:36.348Z,64.40
2019-06-20T11:52:05.291Z,64.50
2019-06-20T11:54:34.487Z,63.90
2019-06-20T11:57:03.273Z,62.90
2019-06-20T11:59:32.447Z,63.20
2019-06-20T12:02:01.141Z,62.80
2019-06-20T12:04:29.874Z,62.60
2019-06-20T12:06:58.997Z,61.60
2019-06-20T12:09:30.731Z,60.40
2019-06-20T12:11:59.418Z,59.10
2019-06-20T12:14:28.508Z,59.50
2019-06-20T12:16:57.490Z,59.70
2019-06-20T12:19:26.369Z,57.60
2019-06-20T12:21:55.167Z,57.80
2019-06-20T12:24:25.393Z,55.70
2019-06-20T12:26:54.903Z,55.40
2019-06-20T12:29:23.961Z,55.90
2019-06-20T12:31:52.946Z,56.40
2019-06-20T12:34:21.711Z,57.30
2019-06-20T12:36:52.012Z,57.40
2019-06-20T12:39:20.733Z,57.50
2019-06-20T12:41:50.263Z,57.80
2019-06-20T12:44:20.047Z,58.40
2019-06-20T12:46:49.129Z,58.00
2019-06-20T12:49:17.890Z,58.80
2019-06-20T12:51:47.253Z,58.30
2019-06-20T12:54:16.019Z,58.50
2019-06-20T12:56:46.242Z,58.20
2019-06-20T12:59:15.085Z,59.50
2019-06-20T13:01:46.524Z,59.90
2019-06-20T13:04:14.220Z,59.20
2019-06-20T13:06:44.347Z,58.90
2019-06-20T13:09:13.166Z,59.80
2019-06-20T13:11:42.639Z,60.40
2019-06-20T13:14:11.605Z,61.10
2019-06-20T13:16:40.785Z,61.20
2019-06-20T13:19:09.510Z,61.70
2019-06-20T13:21:40.458Z,61.80
2019-06-20T13:24:09.274Z,62.30
2019-06-20T13:26:40.629Z,62.50
2019-06-20T13:29:08.731Z,63.10
2019-06-20T13:31:51.732Z,62.50
2019-06-20T13:34:08.225Z,61.80
2019-06-20T13:36:38.151Z,61.50
2019-06-20T13:39:07.983Z,61.10
2019-06-20T13:41:36.711Z,61.80
2019-06-20T13:44:06.224Z,62.60
2019-06-20T13:46:35.286Z,63.20
2019-06-20T13:49:04.075Z,63.50
2019-06-20T13:51:32.881Z,64.70
2019-06-20T13:54:01.887Z,66.00
2019-06-20T13:56:30.580Z,67.90
2019-06-20T13:58:59.398Z,71.00
2019-06-20T14:01:28.529Z,74.30
2019-06-20T14:03:57.656Z,77.80
2019-06-20T14:06:26.567Z,72.20
2019-06-20T14:08:55.755Z,73.70
2019-06-20T14:11:24.786Z,73.90
2019-06-20T14:13:53.603Z,73.30
2019-06-20T14:16:22.631Z,76.50
2019-06-20T14:18:51.533Z,77.40
2019-06-20T14:21:20.378Z,77.90
2019-06-20T14:23:49.043Z,77.70
2019-06-20T14:26:18.280Z,79.60
2019-06-20T14:28:48.231Z,79.30
2019-06-20T14:31:17.119Z,81.10
2019-06-20T14:33:46.110Z,80.60
2019-06-20T14:36:15.071Z,81.90
2019-06-20T14:38:44.389Z,82.50
2019-06-20T14:41:14.120Z,83.40
2019-06-20T14:43:44.360Z,83.20
2019-06-20T14:46:13.419Z,85.10
2019-06-20T14:48:43.554Z,86.20
2019-06-20T14:51:12.817Z,87.80
2019-06-20T14:53:43.889Z,88.50
2019-06-20T14:56:12.147Z,88.80
2019-06-20T14:58:41.477Z,89.80
2019-06-20T15:01:10.567Z,90.30
2019-06-20T15:03:39.358Z,89.10
2019-06-20T15:06:08.765Z,88.60
2019-06-20T15:08:37.506Z,88.40
2019-06-20T15:11:06.545Z,85.90
2019-06-20T15:13:35.466Z,85.30
2019-06-20T15:16:04.253Z,82.80
2019-06-20T15:18:36.113Z,82.20
2019-06-20T15:21:04.803Z,80.40
2019-06-20T15:23:33.635Z,78.70
2019-06-20T15:26:02.347Z,78.70
2019-06-20T15:28:31.435Z,75.10
2019-06-20T15:31:00.579Z,73.30
2019-06-20T15:33:29.251Z,74.30
2019-06-20T15:35:58.355Z,74.20
2019-06-20T15:38:27.744Z,74.50
2019-06-20T15:40:57.659Z,75.10
2019-06-20T15:43:26.533Z,75.40
2019-06-20T15:45:55.828Z,75.70
2019-06-20T15:48:24.806Z,75.30
2019-06-20T15:50:54.097Z,74.40
2019-06-20T15:53:25.791Z,73.80
2019-06-20T15:55:54.968Z,72.00
2019-06-20T15:58:23.699Z,72.60
2019-06-20T16:00:54.414Z,72.20
2019-06-20T16:03:23.326Z,73.00
2019-06-20T16:05:55.935Z,73.30
2019-06-20T16:08:24.993Z,73.10
2019-06-20T16:10:53.843Z,72.70
2019-06-20T16:13:22.967Z,73.00
2019-06-20T16:15:51.974Z,72.30
2019-06-20T16:18:20.662Z,71.30
2019-06-20T16:20:49.831Z,71.50
2019-06-20T16:23:18.643Z,70.10
2019-06-20T16:25:47.526Z,70.10
2019-06-20T16:28:16.718Z,71.20
2019-06-20T16:30:45.703Z,71.00
2019-06-20T16:33:24.669Z,70.90
2019-06-20T16:35:46.242Z,71.90
2019-06-20T16:38:15.019Z,71.40
2019-06-20T16:40:45.820Z,71.70
2019-06-20T16:43:14.768Z,71.80
2019-06-20T16:45:46.182Z,72.30
2019-06-20T16:48:15.078Z,72.60
2019-06-20T16:50:46.167Z,72.90
2019-06-20T16:53:17.651Z,73.20
2019-06-20T16:55:47.702Z,73.50
2019-06-20T16:58:18.428Z,73.30
2019-06-20T17:00:47.416Z,72.90
2019-06-20T17:03:16.101Z,72.10
2019-06-20T17:05:44.931Z,72.00
2019-06-20T17:08:13.837Z,73.10
2019-06-20T17:10:42.610Z,73.50
2019-06-20T17:13:11.562Z,73.70
2019-06-20T17:15:40.372Z,74.10
2019-06-20T17:18:09.277Z,74.40
2019-06-20T17:20:45.922Z,74.90
2019-06-20T17:23:14.791Z,74.50
2019-06-20T17:25:49.342Z,74.80
2019-06-20T17:28:18.463Z,75.00
2019-06-20T17:30:56.569Z,75.40
2019-06-20T17:33:28.434Z,75.10
2019-06-20T17:35:57.287Z,75.50
2019-06-20T17:38:25.968Z,75.60
2019-06-20T17:40:54.706Z,75.40
2019-06-20T17:43:23.536Z,76.20
2019-06-20T17:45:52.289Z,75.40
2019-06-20T17:48:21.452Z,76.20
2019-06-20T17:50:52.517Z,76.40
2019-06-20T17:53:21.463Z,75.70
2019-06-20T17:55:50.712Z,76.20
2019-06-20T17:58:19.695Z,76.60
2019-06-20T18:00:48.545Z,76.90
2019-06-20T18:03:19.994Z,76.60
2019-06-20T18:05:49.936Z,77.00
2019-06-20T18:08:18.658Z,77.40
2019-06-20T18:10:47.378Z,76.70
2019-06-20T18:13:16.307Z,76.70
2019-06-20T18:15:45.334Z,76.60
2019-06-20T18:18:14.156Z,76.30
2019-06-20T18:20:42.841Z,76.50
2019-06-20T18:23:11.903Z,76.50
2019-06-20T18:25:43.584Z,76.30
2019-06-20T18:28:12.556Z,75.50
2019-06-20T18:30:43.002Z,76.30
2019-06-20T18:33:12.119Z,76.20
2019-06-20T18:35:40.909Z,75.90
2019-06-20T18:38:10.719Z,76.60
2019-06-20T18:40:39.801Z,76.40
2019-06-20T18:43:08.606Z,77.50
2019-06-20T18:45:37.302Z,77.50
2019-06-20T18:48:06.125Z,77.50
2019-06-20T18:50:34.801Z,77.90
2019-06-20T18:53:03.589Z,77.90
2019-06-20T18:55:32.391Z,77.60
2019-06-20T18:58:01.113Z,78.40
2019-06-20T19:00:35.023Z,78.90
2019-06-20T19:03:01.974Z,79.60
2019-06-20T19:05:30.706Z,80.30
2019-06-20T19:07:59.392Z,81.10
2019-06-20T19:10:28.446Z,82.10
2019-06-20T19:12:57.175Z,82.90
2019-06-20T19:15:26.903Z,83.00
2019-06-20T19:17:55.882Z,83.40
2019-06-20T19:20:25.166Z,83.70
2019-06-20T19:22:56.985Z,85.10
2019-06-20T19:25:25.770Z,84.80
2019-06-20T19:27:55.117Z,85.30
2019-06-20T19:30:37.953Z,85.00
2019-06-20T19:33:06.623Z,85.30
2019-06-20T19:35:35.552Z,85.70
2019-06-20T19:38:04.556Z,85.70
2019-06-20T19:40:36.558Z,86.00
2019-06-20T19:43:05.345Z,86.10
2019-06-20T19:45:34.218Z,86.90
2019-06-20T19:48:02.969Z,86.30
2019-06-20T19:50:31.973Z,86.20
2019-06-20T19:53:00.831Z,86.50
2019-06-20T19:55:29.713Z,86.90
2019-06-20T19:57:58.658Z,88.00
2019-06-20T20:00:27.897Z,87.30
2019-06-20T20:02:56.640Z,87.60
2019-06-20T20:05:25.387Z,87.30
2019-06-20T20:07:54.137Z,87.10
2019-06-20T20:10:31.974Z,87.10
2019-06-20T20:13:01.274Z,87.60
2019-06-20T20:15:30.248Z,87.50
2019-06-20T20:17:59.474Z,87.40
2019-06-20T20:20:28.299Z,87.80
2019-06-20T20:22:56.972Z,87.90
2019-06-20T20:25:25.984Z,87.80
2019-06-20T20:27:54.674Z,88.00
2019-06-20T20:30:23.560Z,88.40
2019-06-20T20:32:53.640Z,88.10
2019-06-20T20:35:34.995Z,88.90
2019-06-20T20:37:52.878Z,89.10
2019-06-20T20:40:22.613Z,89.10
2019-06-20T20:42:52.494Z,88.80
2019-06-20T20:45:22.663Z,88.40
2019-06-20T20:47:51.325Z,88.60
2019-06-20T20:50:20.668Z,88.80
2019-06-20T20:52:49.750Z,88.40
2019-06-20T20:55:18.743Z,88.10
2019-06-20T20:57:49.642Z,86.80
2019-06-20T21:00:24.476Z,87.10
2019-06-20T21:02:53.471Z,87.40
2019-06-20T21:05:22.408Z,87.50
2019-06-20T21:07:51.191Z,87.90
2019-06-20T21:10:20.564Z,88.10
2019-06-20T21:12:49.316Z,88.50
2019-06-20T21:15:18.417Z,88.70
2019-06-20T21:17:47.198Z,89.30
2019-06-20T21:20:16.421Z,90.10
2019-06-20T21:22:45.250Z,90.10
2019-06-20T21:25:14.241Z,90.20
2019-06-20T21:27:45.443Z,90.40
2019-06-20T21:30:16.412Z,90.50
2019-06-20T21:32:45.194Z,90.70
2019-06-20T21:35:14.787Z,90.90
2019-06-20T21:37:43.673Z,91.10
2019-06-20T21:40:12.600Z,91.30
2019-06-20T21:42:41.293Z,91.40
2019-06-20T21:45:11.020Z,91.50
2019-06-20T21:47:39.826Z,91.60
2019-06-20T21:50:09.742Z,91.60
2019-06-20T21:52:38.491Z,91.70
2019-06-20T21:55:07.503Z,91.70
2019-06-20T21:57:36.427Z,91.60
2019-06-20T22:00:12.731Z,91.50
2019-06-20T22:02:41.657Z,91.20
2019-06-20T22:05:11.233Z,91.00
2019-06-20T22:07:40.040Z,91.40
2019-06-20T22:10:09.420Z,92.50
2019-06-20T22:12:38.090Z,93.80
2019-06-20T22:15:07.098Z,94.50
2019-06-20T22:17:35.907Z,95.70
2019-06-20T22:20:05.811Z,95.60
2019-06-20T22:22:34.686Z,97.10
2019-06-20T22:25:03.973Z,97.80
2019-06-20T22:27:32.726Z,98.70
2019-06-20T22:30:03.833Z,99.30
2019-06-20T22:32:32.208Z,99.60
2019-06-20T22:35:00.887Z,99.50
2019-06-20T22:37:29.847Z,99.30
2019-06-20T22:39:58.843Z,99.90
2019-06-20T22:42:27.541Z,99.90
2019-06-20T22:44:56.311Z,99.90
2019-06-20T22:47:26.185Z,99.90
2019-06-20T22:49:54.976Z,99.90
2019-06-20T22:52:23.826Z,99.90
2019-06-20T22:54:52.560Z,99.90
2019-06-20T22:57:21.680Z,99.90
2019-06-20T22:59:50.469Z,99.90
2019-06-20T23:02:19.531Z,99.90
2019-06-20T23:04:48.420Z,99.90
2019-06-20T23:07:17.115Z,99.90
2019-06-20T23:09:45.984Z,99.90
2019-06-20T23:12:15.391Z,99.90
2019-06-20T23:14:44.450Z,99.90
2019-06-20T23:17:13.346Z,99.90
2019-06-20T23:19:42.028Z,99.90
2019-06-20T23:22:10.711Z,99.90
2019-06-20T23:24:39.439Z,99.90
2019-06-20T23:27:08.241Z,99.90
2019-06-20T23:29:37.262Z,99.90
2019-06-20T23:32:06.298Z,99.90
2019-06-20T23:34:35.008Z,99.90
2019-06-20T23:37:12.736Z,99.90
2019-06-20T23:39:34.160Z,99.90
2019-06-20T23:42:02.846Z,99.90
2019-06-20T23:44:31.513Z,99.90
2019-06-20T23:47:00.334Z,99.90
2019-06-20T23:49:29.123Z,99.90
2019-06-20T23:52:03.181Z,99.90
2019-06-20T23:54:32.497Z,99.90
2019-06-20T23:57:01.465Z,99.90
2019-06-20T23:59:30.367Z,99.90
